Time;durP1;ratioP1;P1;durP2;ratioP2;P2;SDS_P1;SDS_P2;PMS_P1;PMS_P2;Temp;Humidity;BMP_temperature;BMP_pressure;BME280_temperature;BME280_humidity;BME280_pressure;Samples;Min_cycle;Max_cycle;Signal;HPM_P1;HPM_P2
2022/12/13 08:14:07;;;;;;;22.95;9.40;;;2.20;93.30;;;;;;10419704;28;20421;-62
2022/12/13 08:19:09;;;;;;;21.25;9.20;;;2.30;93.10;;;;;;10411041;28;20035;-63
2022/12/13 08:24:12;;;;;;;23.17;10.00;;;2.70;93.30;;;;;;10298752;28;113890;-65
2022/12/13 08:29:14;;;;;;;21.73;10.30;;;2.60;93.50;;;;;;10173023;28;1986914;-63
2022/12/13 08:34:18;;;;;;;22.85;9.90;;;3.60;93.70;;;;;;10322039;28;20037;-62
2022/12/13 08:39:19;;;;;;;23.60;10.55;;;2.30;93.40;;;;;;10339396;28;21012;-62
2022/12/13 08:44:20;;;;;;;25.10;10.35;;;3.30;93.70;;;;;;10342845;28;20056;-61
2022/12/13 08:49:20;;;;;;;22.55;9.98;;;2.30;93.50;;;;;;10338725;28;20036;-62
2022/12/13 08:54:21;;;;;;;23.63;11.13;;;2.70;93.50;;;;;;10333350;28;20037;-62
2022/12/13 08:59:24;;;;;;;21.20;9.38;;;2.70;93.50;;;;;;10333896;28;20325;-61
2022/12/13 09:04:51;;;;;;;25.77;10.52;;;2.40;93.40;;;;;;10324940;28;20150;-61
2022/12/13 09:10:05;;;;;;;22.67;10.90;;;3.70;93.70;;;;;;10686841;23;20064;-62
2022/12/13 09:15:06;;;;;;;23.73;10.70;;;2.40;93.40;;;;;;10351615;28;20029;-62
2022/12/13 09:20:10;;;;;;;25.15;10.93;;;2.30;93.40;;;;;;10349373;28;20067;-66
2022/12/13 09:25:10;;;;;;;24.77;10.75;;;2.40;93.40;;;;;;10320004;28;20083;-60
2022/12/13 09:30:12;;;;;;;25.67;11.23;;;3.90;93.70;;;;;;10324757;28;20041;-62
2022/12/13 09:35:12;;;;;;;27.38;11.77;;;2.40;93.30;;;;;;10320777;28;20783;-60
2022/12/13 09:40:22;;;;;;;26.98;11.13;;;2.40;93.40;;;;;;10320632;28;20306;-61
2022/12/13 09:45:23;;;;;;;25.23;11.63;;;2.50;93.40;;;;;;10319056;28;20055;-61
2022/12/13 09:50:31;;;;;;;27.27;11.02;;;2.90;93.70;;;;;;10307851;28;20041;-63
2022/12/13 09:55:37;;;;;;;24.33;10.63;;;2.60;94.00;;;;;;10317263;28;20538;-61
2022/12/13 10:00:39;;;;;;;27.20;11.48;;;3.80;94.30;;;;;;10295275;28;20468;-62
2022/12/13 10:05:44;;;;;;;26.20;11.27;;;2.80;93.90;;;;;;10314806;28;20267;-61
2022/12/13 10:10:45;;;;;;;21.98;11.00;;;3.40;93.90;;;;;;10310109;28;20741;-62
2022/12/13 10:15:52;;;;;;;23.58;11.40;;;2.90;93.70;;;;;;10314491;28;20388;-62
2022/12/13 10:20:54;;;;;;;25.77;11.35;;;7.10;94.50;;;;;;10301467;28;20919;-62
2022/12/13 10:25:55;;;;;;;22.17;10.48;;;2.30;93.50;;;;;;10301338;28;20029;-61
2022/12/13 10:30:57;;;;;;;26.00;11.88;;;2.80;93.40;;;;;;10304419;28;20137;-62
2022/12/13 10:36:07;;;;;;;26.63;11.90;;;3.10;93.70;;;;;;10302900;28;20110;-62
2022/12/13 10:41:30;;;;;;;28.38;11.68;;;3.30;94.20;;;;;;10312038;28;20491;-62
2022/12/13 10:46:31;;;;;;;30.83;12.27;;;3.40;94.20;;;;;;10309063;28;20451;-62
2022/12/13 10:51:38;;;;;;;28.38;12.68;;;4.20;94.20;;;;;;10312864;28;20556;-63
2022/12/13 10:56:48;;;;;;;30.10;12.52;;;3.70;94.10;;;;;;10314318;28;20029;-63
2022/12/13 11:01:49;;;;;;;30.15;12.77;;;4.10;94.20;;;;;;10313317;28;20396;-63
2022/12/13 11:06:50;;;;;;;26.95;11.90;;;3.90;94.20;;;;;;10297214;28;20026;-62
2022/12/13 11:11:52;;;;;;;46.33;13.55;;;4.00;94.20;;;;;;10313614;28;20338;-63
2022/12/13 11:16:57;;;;;;;35.55;12.35;;;4.50;94.40;;;;;;10315669;28;20203;-64
2022/12/13 11:22:00;;;;;;;32.63;12.80;;;4.20;94.30;;;;;;10315408;28;20021;-65
2022/12/13 11:27:16;;;;;;;30.73;12.15;;;4.30;95.30;;;;;;10310206;28;20508;-67
2022/12/13 11:32:45;;;;;;;28.20;11.40;;;4.40;95.10;;;;;;10311423;28;20122;-63
2022/12/13 11:37:48;;;;;;;;;;;4.50;95.10;;;;;;10306145;28;20109;-61
2022/12/13 11:42:58;;;;;;;27.25;11.18;;;4.50;95.40;;;;;;10309404;28;20363;-62
2022/12/13 11:48:05;;;;;;;26.77;11.32;;;4.50;94.90;;;;;;10322821;28;20087;-64
2022/12/13 11:53:21;;;;;;;26.50;11.40;;;4.40;95.00;;;;;;10304120;28;20037;-62
2022/12/13 11:58:47;;;;;;;26.50;11.75;;;4.30;95.10;;;;;;10307914;28;20040;-62
2022/12/13 12:03:59;;;;;;;25.45;10.45;;;4.30;95.20;;;;;;10307426;28;20042;-68
2022/12/13 12:09:03;;;;;;;26.10;11.77;;;4.20;95.20;;;;;;10309367;28;20033;-61
2022/12/13 12:14:15;;;;;;;43.13;11.82;;;4.50;95.50;;;;;;10309475;28;20283;-61
2022/12/13 12:19:25;;;;;;;24.20;11.50;;;4.30;96.80;;;;;;10306597;28;20397;-65
2022/12/13 12:25:07;;;;;;;34.58;12.20;;;4.40;96.00;;;;;;10309029;28;20060;-62
2022/12/13 12:30:40;;;;;;;37.92;12.35;;;4.40;96.20;;;;;;10256365;28;20576;-60
2022/12/13 12:35:59;;;;;;;27.90;9.68;;;4.60;96.40;;;;;;10304778;28;20029;-61
2022/12/13 12:41:31;;;;;;;28.05;11.18;;;4.50;96.00;;;;;;10310214;28;20064;-62
2022/12/13 12:46:41;;;;;;;26.15;9.50;;;4.70;96.70;;;;;;10306557;28;20024;-62
2022/12/13 12:52:23;;;;;;;20.92;10.07;;;4.80;96.80;;;;;;10310003;28;20037;-64
2022/12/13 12:58:02;;;;;;;23.83;10.00;;;4.90;96.30;;;;;;10185823;28;20432;-61
2022/12/13 13:03:06;;;;;;;;;;;4.80;96.30;;;;;;10136163;28;20426;-61
2022/12/13 13:08:22;;;;;;;22.90;9.32;;;4.80;97.20;;;;;;10274399;28;19998;-61
2022/12/13 13:13:41;;;;;;;23.13;9.93;;;4.70;96.30;;;;;;10309365;28;20068;-62
2022/12/13 13:18:50;;;;;;;25.80;10.45;;;4.60;96.40;;;;;;10303088;28;20821;-66
2022/12/13 13:24:06;;;;;;;21.93;9.67;;;4.50;96.50;;;;;;10315039;28;20903;-62
2022/12/13 13:29:25;;;;;;;25.05;9.02;;;4.50;96.50;;;;;;10322035;28;20021;-62
2022/12/13 13:34:31;;;;;;;22.67;8.57;;;5.00;96.60;;;;;;10300852;28;20041;-61
2022/12/13 13:39:35;;;;;;;18.52;8.73;;;4.30;96.50;;;;;;10316675;28;20064;-61
2022/12/13 13:44:45;;;;;;;21.42;9.40;;;4.30;96.50;;;;;;10319400;28;20452;-61
2022/12/13 13:50:09;;;;;;;19.65;8.35;;;-0.10;95.30;;;;;;10325834;28;20079;-61
2022/12/13 13:55:29;;;;;;;20.30;8.23;;;4.20;96.50;;;;;;10315015;28;20037;-61
2022/12/13 14:00:32;;;;;;;;;;;4.70;96.60;;;;;;10322112;28;20478;-61
2022/12/13 14:05:36;;;;;;;20.90;8.02;;;4.20;96.50;;;;;;10322163;28;20062;-61
2022/12/13 14:11:11;;;;;;;19.10;9.18;;;4.10;96.40;;;;;;10319080;28;20249;-61
2022/12/13 14:16:49;;;;;;;16.83;8.10;;;4.10;96.40;;;;;;10319585;28;20041;-62
2022/12/13 14:22:08;;;;;;;19.13;8.67;;;4.20;96.40;;;;;;10316620;28;20503;-61
2022/12/13 14:27:14;;;;;;;20.50;8.33;;;4.00;96.40;;;;;;10323563;28;20037;-63
2022/12/13 14:32:29;;;;;;;18.40;8.55;;;4.00;96.40;;;;;;10321179;28;20583;-62
2022/12/13 14:37:32;;;;;;;18.25;7.95;;;4.00;96.40;;;;;;10318848;28;20672;-62
2022/12/13 14:42:33;;;;;;;19.20;8.30;;;4.40;96.50;;;;;;10325045;28;20059;-62
2022/12/13 14:47:35;;;;;;;18.60;8.48;;;4.60;96.60;;;;;;10322183;28;20124;-61
2022/12/13 14:52:38;;;;;;;19.55;8.18;;;5.40;96.70;;;;;;10323763;28;20904;-61
2022/12/13 14:57:51;;;;;;;16.95;8.15;;;4.70;96.60;;;;;;10322922;28;20381;-64
2022/12/13 15:02:55;;;;;;;19.23;7.78;;;4.20;96.50;;;;;;10316988;28;20033;-61
2022/12/13 15:07:56;;;;;;;17.48;8.20;;;5.00;96.70;;;;;;10318369;28;20033;-61
2022/12/13 15:12:57;;;;;;;22.52;8.20;;;3.80;96.40;;;;;;10318394;28;20160;-61
2022/12/13 15:18:22;;;;;;;15.55;8.30;;;3.80;96.40;;;;;;10321435;28;20026;-61
2022/12/13 15:23:33;;;;;;;18.52;7.93;;;3.80;96.40;;;;;;10299381;28;20060;-61
2022/12/13 15:28:38;;;;;;;18.08;7.40;;;3.80;96.40;;;;;;10310622;28;20040;-61
2022/12/13 15:33:39;;;;;;;16.35;7.05;;;3.70;96.40;;;;;;10297976;28;20458;-61
2022/12/13 15:39:00;;;;;;;16.27;7.13;;;3.90;96.40;;;;;;10319623;28;20025;-60
2022/12/13 15:44:06;;;;;;;17.15;7.40;;;3.90;96.40;;;;;;10305031;28;20240;-60
2022/12/13 15:49:30;;;;;;;14.95;7.00;;;3.70;96.50;;;;;;10295548;28;20014;-60
2022/12/13 15:54:32;;;;;;;19.63;7.82;;;3.70;96.40;;;;;;10287097;28;20509;-61
2022/12/13 15:59:34;;;;;;;15.57;7.93;;;2.70;96.20;;;;;;10364358;28;20013;-60
2022/12/13 16:04:46;;;;;;;16.55;7.63;;;3.70;96.40;;;;;;10394790;28;20518;-61
2022/12/13 16:09:48;;;;;;;17.65;7.63;;;3.70;96.40;;;;;;10378109;28;20046;-61
2022/12/13 16:14:48;;;;;;;14.77;6.82;;;3.60;96.30;;;;;;10395050;28;20060;-60
2022/12/13 16:19:53;;;;;;;14.18;6.45;;;4.30;96.50;;;;;;10395310;28;20385;-62
2022/12/13 16:24:55;;;;;;;15.55;7.25;;;4.00;96.40;;;;;;10394217;28;20053;-62
2022/12/13 16:29:56;;;;;;;13.77;7.30;;;3.60;96.30;;;;;;10392960;28;20064;-66
2022/12/13 16:34:57;;;;;;;16.83;7.13;;;4.10;96.50;;;;;;10401441;28;20029;-64
2022/12/13 16:40:00;;;;;;;16.05;7.28;;;3.60;96.30;;;;;;10401879;28;20545;-62
2022/12/13 16:45:01;;;;;;;21.55;8.93;;;3.60;96.40;;;;;;10374859;28;20022;-65
2022/12/13 16:50:08;;;;;;;19.45;9.45;;;3.50;96.30;;;;;;10399148;28;20049;-61
2022/12/13 16:55:09;;;;;;;22.90;9.75;;;3.50;96.30;;;;;;10400221;28;20493;-63
2022/12/13 17:00:11;;;;;;;22.17;10.85;;;3.50;96.40;;;;;;10398501;28;20021;-67
2022/12/13 17:05:12;;;;;;;22.42;10.45;;;3.40;96.20;;;;;;10398836;28;20029;-65
2022/12/13 17:10:13;;;;;;;24.48;11.65;;;3.40;96.20;;;;;;10395161;28;20053;-63
2022/12/13 17:15:15;;;;;;;22.85;10.73;;;3.30;96.30;;;;;;10392840;28;20029;-67
2022/12/13 17:20:17;;;;;;;27.40;11.18;;;3.30;96.40;;;;;;10398785;28;20021;-69
2022/12/13 17:25:21;;;;;;;25.95;11.77;;;3.30;96.40;;;;;;10381468;28;20029;-69
2022/12/13 17:30:23;;;;;;;24.50;11.60;;;3.30;96.50;;;;;;10382475;28;20057;-68
2022/12/13 17:35:26;;;;;;;23.58;10.63;;;3.30;96.30;;;;;;10400952;28;20108;-63
2022/12/13 17:40:26;;;;;;;29.65;11.15;;;3.80;96.50;;;;;;10398805;28;20524;-78
2022/12/13 17:45:27;;;;;;;32.17;9.82;;;3.40;96.40;;;;;;10397342;28;20377;-68
2022/12/13 17:50:28;;;;;;;25.85;11.35;;;3.80;96.50;;;;;;10393811;28;20446;-63
2022/12/13 17:55:31;;;;;;;24.55;10.38;;;3.50;96.40;;;;;;10397313;28;20029;-63
2022/12/13 18:00:32;;;;;;;25.75;10.50;;;3.50;96.50;;;;;;10396762;28;20041;-65
2022/12/13 18:05:35;;;;;;;22.30;9.70;;;4.00;96.60;;;;;;10396470;28;20441;-64
2022/12/13 18:10:37;;;;;;;24.33;9.52;;;4.10;96.70;;;;;;10391912;28;20456;-65
2022/12/13 18:15:39;;;;;;;21.23;9.52;;;3.60;96.60;;;;;;10367234;28;20512;-63
2022/12/13 18:20:40;;;;;;;23.15;9.68;;;4.80;96.90;;;;;;10385202;28;20717;-63
2022/12/13 18:25:41;;;;;;;20.02;9.25;;;3.60;96.50;;;;;;10389648;28;20055;-68
2022/12/13 18:30:42;;;;;;;21.38;9.48;;;3.60;96.40;;;;;;10388179;28;20128;-68
2022/12/13 18:35:43;;;;;;;22.38;9.75;;;3.60;96.40;;;;;;10373029;28;20029;-73
2022/12/13 18:40:43;;;;;;;23.00;10.57;;;3.50;96.40;;;;;;10392058;28;20421;-67
2022/12/13 18:45:44;;;;;;;23.20;10.18;;;3.90;96.80;;;;;;10392405;28;20030;-63
2022/12/13 18:50:46;;;;;;;22.55;9.05;;;3.50;96.40;;;;;;10389378;28;20456;-71
2022/12/13 18:55:47;;;;;;;22.38;10.75;;;3.50;96.40;;;;;;10380872;28;20033;-74
2022/12/13 19:00:49;;;;;;;23.55;11.13;;;3.90;96.60;;;;;;10383325;28;20028;-75
2022/12/13 19:05:50;;;;;;;28.25;11.50;;;5.10;96.80;;;;;;10391060;28;20033;-75
2022/12/13 19:10:52;;;;;;;23.70;10.45;;;4.50;96.60;;;;;;10386864;28;20436;-73
2022/12/13 19:15:55;;;;;;;22.50;9.27;;;3.70;96.50;;;;;;10391117;28;20038;-70
2022/12/13 19:20:56;;;;;;;25.27;11.20;;;4.50;96.70;;;;;;10390355;28;20494;-75
2022/12/13 19:25:57;;;;;;;24.13;10.00;;;3.40;96.40;;;;;;10390238;28;20152;-74
2022/12/13 19:30:57;;;;;;;24.00;10.80;;;3.50;96.50;;;;;;10389841;28;20464;-75
2022/12/13 19:35:59;;;;;;;24.40;10.50;;;4.90;96.80;;;;;;10390963;28;20482;-72
2022/12/13 19:41:05;;;;;;;25.55;10.10;;;3.90;96.50;;;;;;10389660;28;20580;-68
2022/12/13 19:46:07;;;;;;;23.95;10.35;;;3.40;96.40;;;;;;10388433;28;20057;-74
2022/12/13 19:51:08;;;;;;;24.80;9.93;;;3.80;96.50;;;;;;10373015;28;20401;-75
2022/12/13 19:56:16;;;;;;;23.23;10.93;;;3.30;96.40;;;;;;10390238;28;20049;-72
2022/12/13 20:01:17;;;;;;;21.98;10.27;;;3.80;96.50;;;;;;10388995;28;20361;-75
2022/12/13 20:06:21;;;;;;;23.60;10.77;;;3.40;96.40;;;;;;10387883;28;20076;-72
2022/12/13 20:11:22;;;;;;;19.23;10.32;;;3.60;96.40;;;;;;10386913;28;20049;-75
2022/12/13 20:16:24;;;;;;;22.73;10.45;;;3.40;96.40;;;;;;10386486;28;20026;-66
2022/12/13 20:21:26;;;;;;;20.00;9.98;;;3.50;96.40;;;;;;10378819;28;20030;-68
2022/12/13 20:26:30;;;;;;;22.13;10.13;;;3.40;96.40;;;;;;10379294;28;20026;-63
2022/12/13 20:31:33;;;;;;;19.30;9.15;;;3.40;96.40;;;;;;10378131;28;20029;-61
2022/12/13 20:36:33;;;;;;;18.38;8.95;;;3.30;96.40;;;;;;10379257;28;20889;-61
2022/12/13 20:41:35;;;;;;;21.85;9.30;;;3.40;96.40;;;;;;10383827;28;20494;-61
2022/12/13 20:46:36;;;;;;;25.10;10.07;;;4.10;96.60;;;;;;10388489;28;20079;-63
2022/12/13 20:51:40;;;;;;;20.55;9.60;;;3.40;96.40;;;;;;10388038;28;20045;-63
2022/12/13 20:56:40;;;;;;;20.05;8.98;;;3.40;96.40;;;;;;10388003;28;20036;-63
2022/12/13 21:01:43;;;;;;;17.67;8.50;;;3.70;96.40;;;;;;10382773;28;20405;-63
2022/12/13 21:06:44;;;;;;;17.20;8.77;;;3.40;96.30;;;;;;10383379;28;20061;-63
2022/12/13 21:11:46;;;;;;;21.60;9.88;;;4.90;96.70;;;;;;10388820;28;20183;-64
2022/12/13 21:16:58;;;;;;;17.33;8.30;;;3.30;96.30;;;;;;10386548;28;20378;-64
2022/12/13 21:21:59;;;;;;;17.13;8.48;;;3.30;96.30;;;;;;10394701;28;20200;-64
2022/12/13 21:27:00;;;;;;;16.10;8.73;;;3.50;96.40;;;;;;10396438;28;20023;-63
2022/12/13 21:32:01;;;;;;;18.83;9.65;;;3.30;96.30;;;;;;10377351;28;20064;-64
2022/12/13 21:37:01;;;;;;;21.23;9.25;;;3.40;96.30;;;;;;10395814;28;20021;-63
2022/12/13 21:42:02;;;;;;;19.35;8.68;;;3.40;96.30;;;;;;10394013;28;20034;-64
2022/12/13 21:47:03;;;;;;;17.95;9.18;;;3.30;96.30;;;;;;10394212;28;20021;-63
2022/12/13 21:52:04;;;;;;;18.63;9.65;;;3.30;96.30;;;;;;10390429;28;20395;-63
2022/12/13 22:02:24;;;;;;;18.83;9.32;;;3.30;96.30;;;;;;10388048;28;20063;-63
2022/12/13 22:07:30;;;;;;;17.25;8.80;;;3.60;96.30;;;;;;10392428;28;20633;-64
2022/12/13 22:12:33;;;;;;;17.35;8.63;;;3.90;96.40;;;;;;10393096;28;20137;-63
2022/12/13 22:17:34;;;;;;;16.98;8.57;;;3.30;96.20;;;;;;10393958;28;20049;-64
2022/12/13 22:22:36;;;;;;;15.88;8.13;;;3.90;96.40;;;;;;10392785;28;20485;-67
2022/12/13 22:27:37;;;;;;;15.95;7.45;;;3.30;96.20;;;;;;10382946;28;20029;-64
2022/12/13 22:32:38;;;;;;;15.40;8.18;;;3.80;96.40;;;;;;10380460;28;20037;-66
2022/12/13 22:37:38;;;;;;;19.10;8.70;;;3.80;96.40;;;;;;10385015;28;20404;-68
2022/12/13 22:42:39;;;;;;;15.45;7.78;;;3.80;96.30;;;;;;10383781;28;20041;-63
2022/12/13 22:47:40;;;;;;;14.55;7.80;;;3.30;96.20;;;;;;10387098;28;20112;-64
2022/12/13 22:52:40;;;;;;;17.25;8.30;;;4.50;96.50;;;;;;10394208;28;20377;-68
2022/12/13 22:57:42;;;;;;;16.00;7.53;;;3.30;96.20;;;;;;10397000;28;20026;-63
2022/12/13 23:02:42;;;;;;;15.30;7.75;;;4.20;96.40;;;;;;10397620;28;20033;-66
2022/12/13 23:07:43;;;;;;;21.02;7.85;;;3.70;96.30;;;;;;10401158;28;20033;-64
2022/12/13 23:13:02;;;;;;;13.55;7.53;;;2.20;95.90;;;;;;10397868;28;20042;-65
2022/12/13 23:18:03;;;;;;;17.48;8.00;;;3.50;96.20;;;;;;10397743;28;20044;-63
2022/12/13 23:23:03;;;;;;;15.13;7.35;;;3.30;96.20;;;;;;10398587;28;20051;-64
2022/12/13 23:28:04;;;;;;;15.60;7.55;;;3.30;96.20;;;;;;10398871;28;20030;-64
2022/12/13 23:33:05;;;;;;;17.67;7.97;;;3.30;96.00;;;;;;10396053;28;20049;-65
2022/12/13 23:38:06;;;;;;;14.40;7.20;;;3.20;96.20;;;;;;10397669;28;20033;-66
2022/12/13 23:43:07;;;;;;;14.40;7.55;;;3.60;96.30;;;;;;10397215;28;20481;-63
2022/12/13 23:48:08;;;;;;;14.57;7.47;;;3.70;96.30;;;;;;10397810;28;20029;-65
2022/12/13 23:53:08;;;;;;;16.90;7.25;;;3.30;96.20;;;;;;10396958;28;20037;-63
2022/12/13 23:58:09;;;;;;;14.65;7.53;;;3.30;96.20;;;;;;10397679;28;20431;-63
